Natural Dam, New York
Current Conditions -  °F | °C
As of 3:33 PM on Friday 28 Nov 2014 (Local Time) from KGTB Reporting Station
Overcast Overcast  
Wind Chill: 15°   Ceiling: 2600
Heat Index: 23°   Visibility: 10mi
Dew Point: 12°   Wind: 7mph
Humidity: 63%   Direction: 280°W
Pressure: 30.15"   Gusts: NA
Location:  44.3309°N, 75.4775°W
Report Text: KGTB 282033Z AUTO 28006KT 10SM BKN026 OVC033 M05/M11 A3015 RMK AO2 CIG 021 RWY03
Loading
Personal Weather Stations






























Interactive Weather Map New forecast layout! Learn more

10-Day Weather Forecast

Advertisements
Track Severe Weather on mobile